createdAt,value
2018-12-17T00:01:15.556Z,96.10
2018-12-17T00:03:52.440Z,96.10
2018-12-17T00:06:31.169Z,96.20
2018-12-17T00:09:09.232Z,96.10
2018-12-17T00:11:47.645Z,96.10
2018-12-17T00:14:23.758Z,96.10
2018-12-17T00:16:59.926Z,96.10
2018-12-17T00:19:40.052Z,96.10
2018-12-17T00:22:15.660Z,96.10
2018-12-17T00:24:51.799Z,96.20
2018-12-17T00:27:30.562Z,96.20
2018-12-17T00:30:06.916Z,96.20
2018-12-17T00:32:43.355Z,96.20
2018-12-17T00:35:19.401Z,96.20
2018-12-17T00:37:53.483Z,96.20
2018-12-17T00:40:31.750Z,96.20
2018-12-17T00:43:10.524Z,96.30
2018-12-17T00:45:49.360Z,96.30
2018-12-17T00:48:24.307Z,96.30
2018-12-17T00:51:02.954Z,96.30
2018-12-17T00:53:41.230Z,96.30
2018-12-17T00:56:15.758Z,96.30
2018-12-17T00:58:53.625Z,96.30
2018-12-17T01:01:29.615Z,96.30
2018-12-17T01:04:07.691Z,96.30
2018-12-17T01:06:43.439Z,96.30
2018-12-17T01:09:21.390Z,96.30
2018-12-17T01:11:59.328Z,96.40
2018-12-17T01:14:39.640Z,96.30
2018-12-17T01:17:11.970Z,96.70
2018-12-17T01:19:47.304Z,96.30
2018-12-17T01:22:25.487Z,96.30
2018-12-17T01:25:03.785Z,96.30
2018-12-17T01:27:41.606Z,96.40
2018-12-17T01:30:19.816Z,96.40
2018-12-17T01:32:56.568Z,96.30
2018-12-17T01:48:48.268Z,96.40
2018-12-17T01:53:59.137Z,96.30
2018-12-17T01:56:34.231Z,96.40
2018-12-17T02:09:31.457Z,96.40
2018-12-17T02:12:09.671Z,96.40
2018-12-17T02:14:47.510Z,96.40
2018-12-17T02:17:25.454Z,96.40
2018-12-17T02:19:59.435Z,96.30
2018-12-17T02:22:37.227Z,96.30
2018-12-17T02:25:17.771Z,96.30
2018-12-17T02:27:54.411Z,96.30
2018-12-17T02:30:30.452Z,96.30
2018-12-17T02:33:06.303Z,96.30
2018-12-17T02:35:41.283Z,96.30
2018-12-17T02:38:19.434Z,96.30
2018-12-17T02:40:57.660Z,96.30
2018-12-17T02:43:33.764Z,96.30
2018-12-17T02:46:10.899Z,96.40
2018-12-17T02:48:44.898Z,96.30
2018-12-17T02:51:23.221Z,96.30
2018-12-17T02:53:59.115Z,96.40
2018-12-17T02:56:37.412Z,96.30
2018-12-17T02:59:11.391Z,96.30
2018-12-17T03:01:49.448Z,96.40
2018-12-17T03:04:23.633Z,96.40
2018-12-17T03:07:01.734Z,96.40
2018-12-17T03:09:39.723Z,96.40
2018-12-17T03:12:15.863Z,96.50
2018-12-17T03:14:51.967Z,96.40
2018-12-17T03:17:30.059Z,96.50
2018-12-17T03:20:10.143Z,96.50
2018-12-17T03:22:44.794Z,96.50
2018-12-17T03:25:25.112Z,96.50
2018-12-17T03:28:01.698Z,96.50
2018-12-17T03:30:37.645Z,96.50
2018-12-17T03:33:15.439Z,96.50
2018-12-17T03:35:51.428Z,96.50
2018-12-17T03:38:29.504Z,96.50
2018-12-17T03:41:07.511Z,96.60
2018-12-17T03:43:41.284Z,96.60
2018-12-17T03:46:17.395Z,96.60
2018-12-17T03:49:07.621Z,96.60
2018-12-17T03:51:46.245Z,96.60
2018-12-17T03:54:21.916Z,96.70
2018-12-17T03:57:01.679Z,96.70
2018-12-17T03:59:37.759Z,96.70
2018-12-17T04:02:15.639Z,96.70
2018-12-17T04:04:51.086Z,96.70
2018-12-17T04:07:29.327Z,96.70
2018-12-17T04:10:05.703Z,96.70
2018-12-17T04:12:43.905Z,96.80
2018-12-17T04:15:21.987Z,96.80
2018-12-17T04:17:57.835Z,96.80
2018-12-17T04:20:36.174Z,96.80
2018-12-17T04:23:08.659Z,96.80
2018-12-17T04:25:45.101Z,96.80
2018-12-17T04:28:21.204Z,96.80
2018-12-17T04:30:59.321Z,96.80
2018-12-17T04:33:37.388Z,96.80
2018-12-17T04:36:13.187Z,96.90
2018-12-17T04:38:50.654Z,96.90
2018-12-17T04:41:29.260Z,96.90
2018-12-17T04:44:03.414Z,96.90
2018-12-17T04:46:41.621Z,96.90
2018-12-17T04:49:17.575Z,96.90
2018-12-17T04:51:53.921Z,96.90
2018-12-17T04:54:30.521Z,96.90
2018-12-17T04:57:06.733Z,96.90
2018-12-17T04:59:40.898Z,97.00
2018-12-17T05:02:16.782Z,97.00
2018-12-17T05:04:52.839Z,97.00
2018-12-17T05:07:27.863Z,97.00
2018-12-17T05:10:06.209Z,97.00
2018-12-17T05:12:44.699Z,97.00
2018-12-17T05:15:22.638Z,97.00
2018-12-17T05:17:56.660Z,97.10
2018-12-17T05:20:25.051Z,97.10
2018-12-17T05:22:53.400Z,97.00
2018-12-17T05:25:21.864Z,97.10
2018-12-17T05:28:00.594Z,97.10
2018-12-17T05:30:37.485Z,97.10
2018-12-17T05:33:16.315Z,97.10
2018-12-17T05:35:51.259Z,97.10
2018-12-17T05:38:32.056Z,97.10
2018-12-17T05:41:06.702Z,97.10
2018-12-17T05:43:44.432Z,97.10
2018-12-17T05:46:22.441Z,97.10
2018-12-17T05:49:03.580Z,97.20
2018-12-17T05:51:43.959Z,97.20
2018-12-17T05:54:22.359Z,97.20
2018-12-17T05:57:00.415Z,97.20
2018-12-17T05:59:36.413Z,97.20
2018-12-17T06:02:12.640Z,97.20
2018-12-17T06:04:47.542Z,97.20
2018-12-17T06:07:26.656Z,97.20
2018-12-17T06:10:06.891Z,97.30
2018-12-17T06:12:43.133Z,97.30
2018-12-17T06:15:19.216Z,97.30
2018-12-17T06:17:53.172Z,97.20
2018-12-17T06:20:30.916Z,97.30
2018-12-17T06:23:05.116Z,97.30
2018-12-17T06:25:46.295Z,97.30
2018-12-17T06:28:26.705Z,97.30
2018-12-17T06:31:06.698Z,97.30
2018-12-17T06:33:42.611Z,97.30
2018-12-17T06:36:20.561Z,97.30
2018-12-17T06:38:55.278Z,97.30
2018-12-17T06:41:38.805Z,97.70
2018-12-17T06:44:17.379Z,97.30
2018-12-17T06:46:53.833Z,97.30
2018-12-17T06:49:34.252Z,97.50
2018-12-17T06:52:10.745Z,97.40
2018-12-17T06:54:54.708Z,97.40
2018-12-17T06:57:27.625Z,97.40
2018-12-17T07:00:04.072Z,97.40
2018-12-17T07:02:45.672Z,97.40
2018-12-17T07:05:14.165Z,97.40
2018-12-17T07:07:42.526Z,97.40
2018-12-17T07:10:10.824Z,97.40
2018-12-17T07:12:39.008Z,97.50
2018-12-17T07:15:07.399Z,97.50
2018-12-17T07:17:35.657Z,97.50
2018-12-17T07:20:04.412Z,97.40
2018-12-17T07:22:32.644Z,97.40
2018-12-17T07:25:01.055Z,97.50
2018-12-17T07:27:29.448Z,97.40
2018-12-17T07:29:59.858Z,97.50
2018-12-17T07:32:28.247Z,97.50
2018-12-17T07:34:56.511Z,97.50
2018-12-17T07:37:36.779Z,97.40
2018-12-17T07:40:05.818Z,97.50
2018-12-17T07:42:51.773Z,97.40
2018-12-17T07:45:20.167Z,97.80
2018-12-17T07:47:48.479Z,97.50
2018-12-17T07:50:16.799Z,97.50
2018-12-17T07:52:45.129Z,97.50
2018-12-17T07:55:22.945Z,97.50
2018-12-17T07:57:51.380Z,97.50
2018-12-17T08:00:19.735Z,97.60
2018-12-17T08:02:58.431Z,97.60
2018-12-17T08:05:33.873Z,97.60
2018-12-17T08:08:08.760Z,97.60
2018-12-17T08:10:45.274Z,97.60
2018-12-17T08:13:23.344Z,97.60
2018-12-17T08:15:53.900Z,97.60
2018-12-17T08:18:23.753Z,97.60
2018-12-17T08:21:04.036Z,97.60
2018-12-17T08:23:44.791Z,97.70
2018-12-17T08:26:21.164Z,97.70
2018-12-17T08:28:49.428Z,97.70
2018-12-17T08:31:17.674Z,97.70
2018-12-17T08:33:51.343Z,97.70
2018-12-17T08:36:19.546Z,97.70
2018-12-17T08:38:47.759Z,97.70
2018-12-17T08:41:19.980Z,97.80
2018-12-17T08:43:48.356Z,97.80
2018-12-17T08:46:16.709Z,97.80
2018-12-17T08:48:45.010Z,97.80
2018-12-17T08:51:13.207Z,97.80
2018-12-17T08:53:41.426Z,97.80
2018-12-17T08:56:09.591Z,97.80
2018-12-17T08:58:37.895Z,97.80
2018-12-17T09:01:06.108Z,97.80
2018-12-17T09:03:34.364Z,97.80
2018-12-17T09:06:02.618Z,97.90
2018-12-17T09:08:30.905Z,97.90
2018-12-17T09:10:59.283Z,97.90
2018-12-17T09:13:27.551Z,97.90
2018-12-17T09:15:55.836Z,97.90
2018-12-17T09:18:23.999Z,97.90
2018-12-17T09:20:52.227Z,97.90
2018-12-17T09:23:20.494Z,97.90
2018-12-17T09:25:48.766Z,97.90
2018-12-17T09:28:33.429Z,98.00
2018-12-17T09:31:05.167Z,98.00
2018-12-17T09:33:33.459Z,98.00
2018-12-17T09:36:13.795Z,98.00
2018-12-17T09:38:42.086Z,98.00
2018-12-17T09:41:20.270Z,98.00
2018-12-17T09:43:57.878Z,98.20
2018-12-17T09:46:44.426Z,98.10
2018-12-17T09:52:14.810Z,98.10
2018-12-17T09:54:43.041Z,98.10
2018-12-17T09:57:11.309Z,98.10
2018-12-17T09:59:39.515Z,98.10
2018-12-17T10:02:07.899Z,98.00
2018-12-17T10:04:36.203Z,98.00
2018-12-17T10:07:04.559Z,98.00
2018-12-17T10:09:32.980Z,98.00
2018-12-17T10:12:01.251Z,98.10
2018-12-17T10:14:29.433Z,98.00
2018-12-17T10:16:57.772Z,98.10
2018-12-17T10:19:28.300Z,98.00
2018-12-17T10:21:56.722Z,98.10
2018-12-17T10:24:25.054Z,98.10
2018-12-17T10:26:53.389Z,98.10
2018-12-17T10:29:29.821Z,98.10
2018-12-17T10:31:58.340Z,98.10
2018-12-17T10:34:26.725Z,98.10
2018-12-17T10:36:57.742Z,98.10
2018-12-17T10:39:25.902Z,98.10
2018-12-17T10:42:02.376Z,98.10
2018-12-17T10:44:36.468Z,98.10
2018-12-17T10:47:04.963Z,98.10
2018-12-17T10:49:38.695Z,98.10
2018-12-17T10:52:13.545Z,98.10
2018-12-17T10:54:49.196Z,98.20
2018-12-17T10:57:23.812Z,98.10
2018-12-17T10:59:52.254Z,98.20
2018-12-17T11:02:25.778Z,98.20
2018-12-17T11:05:00.110Z,98.10
2018-12-17T11:07:34.608Z,98.20
2018-12-17T11:10:08.631Z,98.20
2018-12-17T11:12:47.210Z,98.20
2018-12-17T11:15:28.140Z,98.20
2018-12-17T11:18:00.292Z,98.20
2018-12-17T11:20:35.025Z,98.30
2018-12-17T11:23:03.425Z,98.30
2018-12-17T11:25:31.829Z,98.30
2018-12-17T11:28:00.224Z,98.30
2018-12-17T11:30:29.799Z,98.30
2018-12-17T11:32:58.124Z,98.30
2018-12-17T11:35:26.423Z,98.20
2018-12-17T11:38:08.863Z,98.20
2018-12-17T11:40:37.131Z,98.30
2018-12-17T11:43:14.662Z,98.30
2018-12-17T11:45:49.437Z,98.30
2018-12-17T11:48:24.307Z,98.30
2018-12-17T11:51:06.979Z,98.30
2018-12-17T11:53:35.616Z,98.40
2018-12-17T11:56:05.797Z,98.30
2018-12-17T11:58:37.551Z,98.30
2018-12-17T12:01:24.417Z,98.30
2018-12-17T12:04:00.857Z,98.30
2018-12-17T12:06:35.561Z,98.30
2018-12-17T12:09:13.557Z,98.30
2018-12-17T12:11:49.628Z,98.30
2018-12-17T12:14:23.580Z,98.40
2018-12-17T12:16:57.576Z,98.70
2018-12-17T12:19:31.566Z,98.40
2018-12-17T12:22:05.938Z,98.40
2018-12-17T12:24:42.025Z,98.40
2018-12-17T12:27:22.816Z,98.40
2018-12-17T12:30:01.519Z,98.40
2018-12-17T12:32:38.518Z,98.40
2018-12-17T12:35:17.207Z,98.40
2018-12-17T12:37:54.088Z,98.40
2018-12-17T12:40:25.575Z,98.40
2018-12-17T12:42:57.503Z,98.50
2018-12-17T12:45:32.241Z,98.50
2018-12-17T12:48:13.207Z,98.50
2018-12-17T12:50:54.289Z,98.50
2018-12-17T12:53:26.299Z,98.50
2018-12-17T12:55:58.065Z,98.50
2018-12-17T12:58:36.375Z,98.50
2018-12-17T13:01:07.813Z,98.50
2018-12-17T13:03:35.339Z,98.50
2018-12-17T13:06:03.615Z,98.50
2018-12-17T13:08:32.463Z,98.50
2018-12-17T13:11:00.777Z,98.50
2018-12-17T13:13:29.059Z,98.50
2018-12-17T13:15:57.515Z,98.60
2018-12-17T13:18:25.721Z,98.50
2018-12-17T13:20:54.190Z,98.50
2018-12-17T13:23:36.843Z,98.50
2018-12-17T13:26:05.271Z,98.50
2018-12-17T13:28:33.544Z,98.50
2018-12-17T13:31:01.831Z,98.50
2018-12-17T13:33:30.109Z,98.50
2018-12-17T13:35:58.387Z,98.50
2018-12-17T13:38:26.732Z,98.50
2018-12-17T13:40:55.028Z,98.50
2018-12-17T13:43:23.355Z,98.50
2018-12-17T13:45:51.707Z,98.50
2018-12-17T13:48:20.071Z,98.50
2018-12-17T13:50:50.697Z,98.50
2018-12-17T13:53:24.625Z,98.60
2018-12-17T13:55:52.910Z,98.60
2018-12-17T13:58:21.201Z,98.60
2018-12-17T14:00:49.443Z,98.60
2018-12-17T14:03:17.757Z,98.60
2018-12-17T14:05:46.024Z,98.60
2018-12-17T14:08:14.375Z,98.60
2018-12-17T14:10:47.874Z,98.60
2018-12-17T14:13:16.164Z,98.60
2018-12-17T14:15:49.832Z,98.60
2018-12-17T14:18:23.719Z,98.60
2018-12-17T14:20:57.435Z,98.60
2018-12-17T14:23:25.801Z,98.70
2018-12-17T14:25:54.301Z,98.70
2018-12-17T14:28:33.267Z,98.70
2018-12-17T14:31:01.678Z,98.70
2018-12-17T14:33:31.311Z,98.70
2018-12-17T14:36:04.917Z,98.70
2018-12-17T14:38:33.189Z,98.70
2018-12-17T14:41:01.357Z,98.70
2018-12-17T14:43:29.630Z,98.70
2018-12-17T14:45:57.767Z,98.70
2018-12-17T14:48:34.694Z,98.70
2018-12-17T14:51:02.967Z,98.70
2018-12-17T14:53:31.165Z,98.70
2018-12-17T14:55:59.464Z,98.70
2018-12-17T14:58:27.652Z,98.70
2018-12-17T15:00:55.872Z,98.70
2018-12-17T15:03:24.228Z,98.70
2018-12-17T15:05:56.028Z,98.70
2018-12-17T15:08:24.371Z,98.70
2018-12-17T15:10:52.684Z,98.70
2018-12-17T15:13:21.013Z,98.70
2018-12-17T15:15:53.014Z,98.70
2018-12-17T15:18:29.800Z,98.70
2018-12-17T15:20:58.255Z,98.70
2018-12-17T15:23:26.562Z,98.70
2018-12-17T15:28:59.752Z,98.70
2018-12-17T15:31:28.242Z,98.70
2018-12-17T15:34:05.180Z,98.70
2018-12-17T15:36:37.259Z,98.70
2018-12-17T15:39:17.761Z,98.70
2018-12-17T15:41:50.119Z,98.80
2018-12-17T15:44:36.343Z,98.80
2018-12-17T15:47:14.702Z,98.80
2018-12-17T15:49:50.850Z,99.10
2018-12-17T15:52:26.823Z,99.00
2018-12-17T15:55:02.473Z,98.70
2018-12-17T15:57:37.124Z,98.70
2018-12-17T16:00:15.002Z,98.80
2018-12-17T16:02:46.344Z,98.80
2018-12-17T16:05:32.449Z,98.80
2018-12-17T16:08:09.169Z,98.80
2018-12-17T16:10:47.197Z,98.80
2018-12-17T16:13:25.104Z,98.80
2018-12-17T16:15:59.905Z,98.80
2018-12-17T16:18:37.731Z,98.80
2018-12-17T16:21:15.841Z,98.80
2018-12-17T16:23:53.765Z,98.80
2018-12-17T16:26:31.976Z,98.90
2018-12-17T16:29:08.733Z,98.90
2018-12-17T16:31:46.831Z,98.90
2018-12-17T16:34:25.451Z,98.90
2018-12-17T16:37:03.643Z,98.90
2018-12-17T16:39:45.848Z,98.90
2018-12-17T16:42:20.305Z,98.90
2018-12-17T16:44:58.391Z,98.90
2018-12-17T16:47:35.033Z,99.00
2018-12-17T16:53:14.681Z,99.00
2018-12-17T16:55:52.640Z,98.90
2018-12-17T16:58:29.718Z,98.90
2018-12-17T17:01:08.309Z,99.00
2018-12-17T17:03:46.433Z,99.00
2018-12-17T17:06:24.387Z,99.00
2018-12-17T17:09:02.856Z,99.00
2018-12-17T17:11:41.465Z,99.00
2018-12-17T17:14:21.851Z,99.00
2018-12-17T17:19:53.366Z,99.00
2018-12-17T17:22:30.104Z,99.00
2018-12-17T17:25:05.617Z,99.00
2018-12-17T17:27:41.817Z,99.00
2018-12-17T17:30:17.858Z,99.00
2018-12-17T17:32:55.708Z,98.90
2018-12-17T17:35:31.475Z,98.90
2018-12-17T17:38:09.581Z,98.90
2018-12-17T17:40:43.727Z,98.90
2018-12-17T17:46:11.608Z,98.90
2018-12-17T17:48:56.016Z,98.90
2018-12-17T17:51:33.966Z,98.90
2018-12-17T17:54:09.704Z,98.90
2018-12-17T17:56:50.340Z,98.90
2018-12-17T17:59:28.927Z,98.90
2018-12-17T18:02:06.977Z,98.90
2018-12-17T18:04:44.631Z,98.90
2018-12-17T18:07:20.712Z,99.00
2018-12-17T18:09:59.025Z,99.00
2018-12-17T18:12:37.242Z,98.90
2018-12-17T18:15:16.016Z,98.90
2018-12-17T18:17:52.307Z,98.90
2018-12-17T18:20:28.329Z,98.90
2018-12-17T18:23:03.343Z,98.90
2018-12-17T18:25:39.760Z,99.00
2018-12-17T18:28:17.708Z,99.00
2018-12-17T18:30:58.210Z,98.90
2018-12-17T18:33:49.151Z,99.00
2018-12-17T18:36:29.648Z,99.00
2018-12-17T18:39:10.823Z,99.00
2018-12-17T18:41:48.972Z,99.00
2018-12-17T18:47:25.461Z,99.00
2018-12-17T18:52:59.396Z,99.10
2018-12-17T18:55:35.379Z,99.00
2018-12-17T18:58:13.292Z,99.00
2018-12-17T19:00:52.141Z,99.00
2018-12-17T19:03:28.425Z,99.10
2018-12-17T19:06:08.733Z,99.40
2018-12-17T19:08:45.170Z,99.00
2018-12-17T19:17:34.951Z,99.00
2018-12-17T19:20:11.535Z,99.00
2018-12-17T19:22:47.689Z,99.00
2018-12-17T19:25:25.900Z,99.00
2018-12-17T19:28:04.713Z,99.00
2018-12-17T19:30:44.802Z,99.00
2018-12-17T19:33:31.403Z,98.90
2018-12-17T19:36:13.727Z,98.90
2018-12-17T19:38:51.566Z,98.90
2018-12-17T19:41:28.546Z,99.00
2018-12-17T19:44:04.665Z,98.90
2018-12-17T19:46:45.251Z,98.90
2018-12-17T19:49:23.951Z,98.90
2018-12-17T19:52:10.349Z,98.90
2018-12-17T19:54:46.572Z,98.90
2018-12-17T19:57:24.548Z,98.90
2018-12-17T20:00:01.529Z,98.80
2018-12-17T20:02:47.054Z,98.80
2018-12-17T20:05:31.569Z,98.80
2018-12-17T20:08:12.084Z,98.90
2018-12-17T20:10:52.862Z,98.80
2018-12-17T20:13:37.816Z,98.90
2018-12-17T20:19:15.049Z,98.80
2018-12-17T20:22:00.205Z,98.80
2018-12-17T20:24:36.640Z,98.80
2018-12-17T20:27:21.111Z,98.90
2018-12-17T20:30:06.339Z,99.10
2018-12-17T20:32:53.441Z,98.80
2018-12-17T20:35:23.848Z,98.80
2018-12-17T20:38:04.115Z,98.80
2018-12-17T20:40:42.931Z,98.80
2018-12-17T20:49:34.090Z,98.80
2018-12-17T20:52:12.383Z,98.80
2018-12-17T20:54:50.355Z,98.80
2018-12-17T20:57:28.269Z,98.80
2018-12-17T21:00:13.716Z,98.80
2018-12-17T21:02:50.350Z,98.90
2018-12-17T21:05:36.865Z,98.80
2018-12-17T21:08:13.168Z,98.90
2018-12-17T21:10:57.532Z,98.80
2018-12-17T21:13:35.935Z,98.80
2018-12-17T21:22:25.990Z,98.90
2018-12-17T21:25:00.657Z,98.80
2018-12-17T21:27:38.632Z,98.80
2018-12-17T21:39:11.930Z,98.80
2018-12-17T21:41:54.423Z,98.80
2018-12-17T21:44:35.433Z,98.80
2018-12-17T21:50:19.112Z,98.80
2018-12-17T21:56:00.523Z,98.80
2018-12-17T21:58:40.851Z,98.80
2018-12-17T22:04:22.219Z,98.80
2018-12-17T22:07:08.653Z,98.80
2018-12-17T22:09:45.099Z,98.90
2018-12-17T22:15:27.876Z,98.90
2018-12-17T22:18:04.703Z,98.90
2018-12-17T22:20:44.977Z,98.90
2018-12-17T22:23:23.692Z,98.90
2018-12-17T22:26:01.627Z,98.80
2018-12-17T22:28:38.529Z,98.90
2018-12-17T22:34:10.535Z,98.80
2018-12-17T22:36:48.475Z,98.90
2018-12-17T22:39:26.494Z,98.80
2018-12-17T22:42:10.865Z,98.80
2018-12-17T22:44:49.432Z,98.80
2018-12-17T22:47:25.627Z,98.80
2018-12-17T22:50:03.820Z,98.80
2018-12-17T22:55:50.904Z,98.80
2018-12-17T22:58:25.360Z,98.80
2018-12-17T23:01:01.745Z,98.80
2018-12-17T23:03:39.850Z,98.80
2018-12-17T23:06:20.862Z,98.80
2018-12-17T23:09:02.500Z,98.80
2018-12-17T23:11:51.718Z,98.80
2018-12-17T23:14:36.566Z,98.80
2018-12-17T23:20:14.791Z,98.80
2018-12-17T23:22:52.592Z,98.80
2018-12-17T23:25:30.844Z,98.80
2018-12-17T23:28:07.674Z,98.80
2018-12-17T23:30:51.904Z,98.80
2018-12-17T23:33:36.754Z,98.80
2018-12-17T23:36:17.741Z,98.80
2018-12-17T23:39:04.689Z,98.80
2018-12-17T23:41:40.959Z,98.70
2018-12-17T23:44:16.972Z,98.70
2018-12-17T23:46:57.121Z,98.70
2018-12-17T23:49:36.750Z,98.80
2018-12-17T23:52:17.148Z,98.80
2018-12-17T23:55:01.832Z,98.80
2018-12-17T23:57:42.204Z,98.80
